createdAt,value
2022-07-25T00:00:12.433Z,10.43
2022-07-25T00:05:14.067Z,12.63
2022-07-25T00:10:16.743Z,10.15
2022-07-25T00:15:18.365Z,11.95
2022-07-25T00:20:20.131Z,9.85
2022-07-25T00:25:21.734Z,10.90
2022-07-25T00:30:23.308Z,11.45
2022-07-25T00:35:25.081Z,10.98
2022-07-25T00:40:26.998Z,13.10
2022-07-25T00:45:28.643Z,10.70
2022-07-25T00:50:33.103Z,12.80
2022-07-25T00:55:34.766Z,11.65
2022-07-25T01:00:36.356Z,13.93
2022-07-25T01:05:38.105Z,11.65
2022-07-25T01:10:41.792Z,11.98
2022-07-25T01:15:43.555Z,15.15
2022-07-25T01:20:45.450Z,12.02
2022-07-25T01:25:47.037Z,12.48
2022-07-25T01:30:48.869Z,12.93
2022-07-25T01:35:50.537Z,13.20
2022-07-25T01:40:52.142Z,12.25
2022-07-25T01:45:53.796Z,12.85
2022-07-25T01:50:55.460Z,12.57
2022-07-25T01:55:57.461Z,12.23
2022-07-25T02:00:59.177Z,14.18
2022-07-25T02:06:07.065Z,11.68
2022-07-25T02:11:08.802Z,11.65
2022-07-25T02:16:10.752Z,12.57
2022-07-25T02:21:13.918Z,12.38
2022-07-25T02:26:16.292Z,11.70
2022-07-25T02:31:17.939Z,13.80
2022-07-25T02:36:19.784Z,14.02
2022-07-25T02:41:21.444Z,14.77
2022-07-25T02:46:23.118Z,13.35
2022-07-25T02:51:25.225Z,12.52
2022-07-25T02:56:29.623Z,15.50
2022-07-25T03:01:32.304Z,14.10
2022-07-25T03:06:34.001Z,15.02
2022-07-25T03:11:35.798Z,12.38
2022-07-25T03:16:37.385Z,13.70
2022-07-25T03:21:39.223Z,14.20
2022-07-25T03:26:40.834Z,14.85
2022-07-25T03:31:42.504Z,18.70
2022-07-25T03:36:44.105Z,13.07
2022-07-25T03:41:46.056Z,15.13
2022-07-25T03:46:47.679Z,13.82
2022-07-25T03:51:49.360Z,15.43
2022-07-25T03:56:51.870Z,16.00
2022-07-25T04:01:53.521Z,16.30
2022-07-25T04:06:55.374Z,15.32
2022-07-25T04:11:57.170Z,14.45
2022-07-25T04:16:58.772Z,13.88
2022-07-25T04:22:00.409Z,13.32
2022-07-25T04:27:02.060Z,13.15
2022-07-25T04:32:04.005Z,14.68
2022-07-25T04:37:05.824Z,13.00
2022-07-25T04:42:07.497Z,15.98
2022-07-25T04:47:09.050Z,13.35
2022-07-25T04:52:10.715Z,14.02
2022-07-25T04:57:12.290Z,12.57
2022-07-25T05:02:13.960Z,13.52
2022-07-25T05:07:15.556Z,13.18
2022-07-25T05:12:17.425Z,12.18
2022-07-25T05:17:18.996Z,17.90
2022-07-25T05:22:23.077Z,14.10
2022-07-25T05:27:29.865Z,10.93
2022-07-25T05:32:31.933Z,12.02
2022-07-25T05:37:34.728Z,15.23
2022-07-25T05:42:36.569Z,11.50
2022-07-25T05:47:38.182Z,11.07
2022-07-25T05:52:39.763Z,10.45
2022-07-25T05:57:41.360Z,10.25
2022-07-25T06:02:43.057Z,12.27
2022-07-25T06:07:44.759Z,9.32
2022-07-25T06:12:46.439Z,10.02
2022-07-25T06:17:49.196Z,10.52
2022-07-25T06:22:50.945Z,10.30
2022-07-25T06:27:52.576Z,9.80
2022-07-25T06:32:54.384Z,10.40
2022-07-25T06:37:56.819Z,9.75
2022-07-25T06:42:58.551Z,11.00
2022-07-25T06:48:00.161Z,10.05
2022-07-25T06:53:02.602Z,10.00
2022-07-25T06:58:04.624Z,9.90
2022-07-25T07:03:06.276Z,9.63
2022-07-25T07:08:07.961Z,9.38
2022-07-25T07:13:12.599Z,9.82
2022-07-25T07:18:14.338Z,9.40
2022-07-25T07:23:17.045Z,10.43
2022-07-25T07:28:19.702Z,10.02
2022-07-25T07:33:21.309Z,9.15
2022-07-25T07:38:24.255Z,9.02
2022-07-25T07:43:30.022Z,9.20
2022-07-25T07:48:33.137Z,8.48
2022-07-25T07:53:53.543Z,10.55
2022-07-25T07:58:56.221Z,8.77
2022-07-25T08:03:57.819Z,8.35
2022-07-25T08:08:59.504Z,9.52
2022-07-25T08:14:01.752Z,8.70
2022-07-25T08:19:03.550Z,9.88
2022-07-25T08:24:05.702Z,10.98
2022-07-25T08:29:19.119Z,7.95
2022-07-25T08:34:22.545Z,7.95
2022-07-25T08:39:24.247Z,10.07
2022-07-25T08:44:31.936Z,9.35
2022-07-25T08:49:35.214Z,9.85
2022-07-25T08:54:37.130Z,11.27
2022-07-25T08:59:38.754Z,10.68
2022-07-25T09:04:40.593Z,9.43
2022-07-25T09:09:44.294Z,8.63
2022-07-25T09:14:48.872Z,9.27
2022-07-25T09:19:57.965Z,8.77
2022-07-25T09:24:59.533Z,8.05
2022-07-25T09:30:01.148Z,9.88
2022-07-25T09:35:02.800Z,8.02
2022-07-25T09:40:14.013Z,8.75
2022-07-25T09:45:15.716Z,7.80
2022-07-25T09:50:18.588Z,7.63
2022-07-25T09:55:21.218Z,9.20
2022-07-25T10:00:26.520Z,8.85
2022-07-25T10:05:49.848Z,7.20
2022-07-25T10:10:51.518Z,7.38
2022-07-25T10:15:53.580Z,10.13
2022-07-25T10:21:24.490Z,7.43
2022-07-25T10:26:27.956Z,8.93
2022-07-25T10:31:32.317Z,7.75
2022-07-25T10:36:56.097Z,7.35
2022-07-25T10:42:02.740Z,7.57
2022-07-25T10:47:10.340Z,7.88
2022-07-25T10:52:17.539Z,7.33
2022-07-25T10:57:19.269Z,7.55
2022-07-25T11:02:21.042Z,7.82
2022-07-25T11:07:22.974Z,8.20
2022-07-25T11:12:24.620Z,7.70
2022-07-25T11:17:27.083Z,8.45
2022-07-25T11:22:30.345Z,7.38
2022-07-25T11:27:34.108Z,7.18
2022-07-25T11:32:58.312Z,7.40
2022-07-25T11:38:02.400Z,7.28
2022-07-25T11:43:04.344Z,7.50
2022-07-25T11:48:10.790Z,8.43
2022-07-25T11:53:14.913Z,7.68
2022-07-25T11:58:18.306Z,7.70
2022-07-25T12:03:23.156Z,8.30
2022-07-25T12:08:25.210Z,8.25
2022-07-25T12:13:29.018Z,7.95
2022-07-25T12:18:30.623Z,6.97
2022-07-25T12:23:32.273Z,7.07
2022-07-25T12:28:33.833Z,7.40
2022-07-25T12:33:36.126Z,7.00
2022-07-25T12:38:37.759Z,8.95
2022-07-25T12:43:39.337Z,8.60
2022-07-25T12:48:41.014Z,8.13
2022-07-25T12:53:42.844Z,9.32
2022-07-25T12:58:44.564Z,8.25
2022-07-25T13:03:46.207Z,7.28
2022-07-25T13:08:47.995Z,7.30
2022-07-25T13:13:49.574Z,10.10
2022-07-25T13:18:51.197Z,11.10
2022-07-25T13:23:52.792Z,7.28
2022-07-25T13:28:59.652Z,8.95
2022-07-25T13:34:02.311Z,8.03
2022-07-25T13:39:05.544Z,7.85
2022-07-25T13:44:07.382Z,7.30
2022-07-25T13:49:09.811Z,8.32
2022-07-25T13:54:12.431Z,6.88
2022-07-25T13:59:21.012Z,7.60
2022-07-25T14:04:23.318Z,9.23
2022-07-25T14:09:24.919Z,9.13
2022-07-25T14:14:26.512Z,9.23
2022-07-25T14:19:28.083Z,9.80
2022-07-25T14:24:29.651Z,8.55
2022-07-25T14:29:31.351Z,11.88
2022-07-25T14:34:33.676Z,9.60
2022-07-25T14:39:35.273Z,9.57
2022-07-25T14:44:37.690Z,12.10
2022-07-25T14:49:40.506Z,9.40
2022-07-25T14:54:42.445Z,8.07
2022-07-25T14:59:44.031Z,9.98
2022-07-25T15:04:45.717Z,9.70
2022-07-25T15:09:47.353Z,8.27
2022-07-25T15:14:49.039Z,7.68
2022-07-25T15:19:50.737Z,11.05
2022-07-25T15:30:16.343Z,9.23
2022-07-25T15:35:18.348Z,8.23
2022-07-25T15:40:19.985Z,8.57
2022-07-25T15:45:36.992Z,8.35
2022-07-25T15:50:40.877Z,8.00
2022-07-25T15:55:43.048Z,10.27
2022-07-25T16:00:44.737Z,8.18
2022-07-25T16:05:46.446Z,6.68
2022-07-25T16:10:48.289Z,7.22
2022-07-25T16:15:49.940Z,10.20
2022-07-25T16:20:51.516Z,9.07
2022-07-25T16:25:53.276Z,12.52
2022-07-25T16:30:54.918Z,7.75
2022-07-25T16:35:57.331Z,8.90
2022-07-25T16:40:58.905Z,7.50
2022-07-25T16:46:02.050Z,8.38
2022-07-25T16:51:04.315Z,6.68
2022-07-25T16:56:06.022Z,7.28
2022-07-25T17:01:07.611Z,10.57
2022-07-25T17:06:09.424Z,7.40
2022-07-25T17:11:11.191Z,6.70
2022-07-25T17:16:12.955Z,9.35
2022-07-25T17:21:16.714Z,9.60
2022-07-25T17:26:19.340Z,7.60
2022-07-25T17:31:21.206Z,8.98
2022-07-25T17:36:22.872Z,8.50
2022-07-25T17:41:24.456Z,6.38
2022-07-25T17:46:26.098Z,6.00
2022-07-25T17:51:27.792Z,8.65
2022-07-25T17:56:29.384Z,7.47
2022-07-25T18:01:31.027Z,7.03
2022-07-25T18:06:33.275Z,7.32
2022-07-25T18:11:34.940Z,7.03
2022-07-25T18:16:36.527Z,6.28
2022-07-25T18:21:38.100Z,8.00
2022-07-25T18:26:40.240Z,6.60
2022-07-25T18:31:41.949Z,3.92
2022-07-25T18:36:44.062Z,8.40
2022-07-25T18:41:45.622Z,5.00
2022-07-25T18:46:49.580Z,4.50
2022-07-25T18:51:51.229Z,5.53
2022-07-25T18:56:52.899Z,8.27
2022-07-25T19:01:55.193Z,3.72
2022-07-25T19:06:57.477Z,5.40
2022-07-25T19:12:01.124Z,4.53
2022-07-25T19:17:04.175Z,4.15
2022-07-25T19:22:05.737Z,4.40
2022-07-25T19:27:07.914Z,4.57
2022-07-25T19:32:09.624Z,6.68
2022-07-25T19:37:11.278Z,4.65
2022-07-25T19:42:13.197Z,4.05
2022-07-25T19:47:15.006Z,3.55
2022-07-25T19:52:16.712Z,8.55
2022-07-25T19:57:18.985Z,5.97
2022-07-25T20:02:20.645Z,7.50
2022-07-25T20:07:24.606Z,4.47
2022-07-25T20:12:26.185Z,3.72
2022-07-25T20:17:28.188Z,4.35
2022-07-25T20:22:31.448Z,3.67
2022-07-25T20:27:33.195Z,4.18
2022-07-25T20:32:35.539Z,4.80
2022-07-25T20:37:37.131Z,5.93
2022-07-25T20:42:38.949Z,5.50
2022-07-25T20:47:42.887Z,4.97
2022-07-25T20:52:44.457Z,4.07
2022-07-25T20:57:50.315Z,4.97
2022-07-25T21:02:52.335Z,3.45
2022-07-25T21:07:53.972Z,3.22
2022-07-25T21:12:56.710Z,6.82
2022-07-25T21:17:58.388Z,4.10
2022-07-25T21:22:59.983Z,5.07
2022-07-25T21:28:01.621Z,8.52
2022-07-25T21:33:04.632Z,8.65
2022-07-25T21:38:26.093Z,6.38
2022-07-25T21:43:29.293Z,3.72
2022-07-25T21:48:49.358Z,5.13
2022-07-25T21:53:54.025Z,3.67
2022-07-25T21:58:55.589Z,3.90
2022-07-25T22:03:57.355Z,4.78
2022-07-25T22:08:59.003Z,4.00
2022-07-25T22:14:00.771Z,5.72
2022-07-25T22:19:02.543Z,4.30
2022-07-25T22:24:04.416Z,6.45
2022-07-25T22:29:06.458Z,4.57
2022-07-25T22:34:08.248Z,7.47
2022-07-25T22:39:11.155Z,4.32
2022-07-25T22:44:13.240Z,4.55
2022-07-25T22:49:14.880Z,4.03
2022-07-25T22:54:18.785Z,2.25
2022-07-25T22:59:20.445Z,4.72
2022-07-25T23:04:22.124Z,2.65
2022-07-25T23:09:23.728Z,3.55
2022-07-25T23:14:25.335Z,2.05
2022-07-25T23:19:26.919Z,3.40
2022-07-25T23:24:28.581Z,3.25
2022-07-25T23:29:30.224Z,3.63
2022-07-25T23:34:34.742Z,3.50
2022-07-25T23:39:36.578Z,3.58
2022-07-25T23:44:38.160Z,3.33
2022-07-25T23:49:39.839Z,2.75
2022-07-25T23:54:41.528Z,2.97
2022-07-25T23:59:43.199Z,2.35
